| time (UTC) | temp C | wind direction | speed KPH | gust KPH | rain 1hr cm | rain 24hr cm | rain mn cm | humidity % | barometer mb |
| 20260904183059 | 17 | 281 | 4.8 | 6.4 | 0.00 | 0.81 | 0.03 | 50 | 1013.6 |
| 20260904181555 | 17 | 124 | 0.0 | 4.8 | 0.00 | 0.81 | 0.03 | 51 | 1013.5 |
| 20260904180056 | 17 | 86 | 0.0 | 3.2 | 0.00 | 0.81 | 0.03 | 53 | 1013.6 |
| 20260904174549 | 16 | 139 | 0.0 | 3.2 | 0.00 | 0.81 | 0.03 | 58 | 1013.7 |
| 20260904173052 | 16 | 146 | 0.0 | 4.8 | 0.00 | 0.81 | 0.03 | 61 | 1013.7 |
| 20260904171546 | 16 | 295 | 1.6 | 4.8 | 0.00 | 0.81 | 0.03 | 62 | 1013.7 |
| 20260904170046 | 15 | 222 | 1.6 | 4.8 | 0.00 | 0.81 | 0.03 | 66 | 1013.6 |
| 20260904164538 | 14 | 243 | 0.0 | 1.6 | 0.00 | 0.81 | 0.03 | 69 | 1013.7 |
| 20260904163035 | 13 | 179 | 0.0 | 4.8 | 0.00 | 0.81 | 0.03 | 75 | 1013.6 |
| 20260904161532 | 12 | 107 | 0.0 | 3.2 | 0.00 | 0.81 | 0.03 | 79 | 1013.6 |
| 20260904160027 | 11 | 110 | 1.6 | 4.8 | 0.00 | 0.81 | 0.03 | 80 | 1013.6 |
| 20260904154525 | 11 | 119 | 0.0 | 4.8 | 0.00 | 0.81 | 0.03 | 83 | 1013.5 |
| 20260904153025 | 11 | 142 | 0.0 | 3.2 | 0.00 | 0.81 | 0.03 | 83 | 1013.6 |
| 20260904151526 | 11 | 172 | 0.0 | 0.0 | 0.00 | 0.81 | 0.03 | 84 | 1013.5 |
| 20260904150033 | 11 | 172 | 0.0 | 1.6 | 0.03 | 0.81 | 0.03 | 84 | 1013.5 |
| 20260904144523 | 11 | 110 | 0.0 | 1.6 | 0.03 | 0.81 | 0.03 | 84 | 1013.4 |
| 20260904143021 | 11 | 110 | 0.0 | 1.6 | 0.03 | 0.81 | 0.03 | 85 | 1013.3 |
| 20260904141517 | 11 | 110 | 0.0 | 1.6 | 0.03 | 0.81 | 0.03 | 85 | 1013.0 |
| 20260904140016 | 10 | 110 | 0.0 | 1.6 | 0.00 | 0.79 | 0.00 | 85 | 1012.9 |
| 20260904134515 | 10 | 110 | 0.0 | 1.6 | 0.00 | 0.79 | 0.00 | 87 | 1012.8 |
| 20260904133013 | 10 | 110 | 0.0 | 0.0 | 0.00 | 0.79 | 0.00 | 85 | 1012.7 |
| 20260904131510 | 10 | 110 | 0.0 | 0.0 | 0.00 | 0.79 | 0.00 | 84 | 1012.3 |
| 20260904130009 | 10 | 110 | 0.0 | 1.6 | 0.00 | 0.79 | 0.00 | 85 | 1012.2 |
| 20260904124506 | 10 | 110 | 0.0 | 0.0 | 0.00 | 0.79 | 0.00 | 86 | 1012.0 |
| 20260904123005 | 10 | 110 | 0.0 | 0.0 | 0.00 | 0.79 | 0.00 | 85 | 1011.8 |
| 20260904121504 | 10 | 110 | 0.0 | 1.6 | 0.00 | 0.79 | 0.00 | 85 | 1011.6 |
| 20260904120002 | 10 | 110 | 0.0 | 0.0 | 0.00 | 0.79 | 0.00 | 86 | 1011.4 |
| 20260904114504 | 10 | 110 | 0.0 | 0.0 | 0.00 | 0.79 | 0.00 | 87 | 1011.4 |
| 20260904113200 | 10 | 110 | 0.0 | 0.0 | 0.00 | 0.79 | 0.00 | 85 | 1011.3 |
| 20260904111558 | 10 | 110 | 0.0 | 1.6 | 0.00 | 0.79 | 0.00 | 83 | 1011.2 |
| 20260904110056 | 10 | 110 | 0.0 | 1.6 | 0.00 | 0.79 | 0.00 | 83 | 1010.9 |
| 20260904104553 | 10 | 110 | 0.0 | 3.2 | 0.00 | 0.79 | 0.00 | 84 | 1010.8 |
| 20260904103051 | 10 | 110 | 0.0 | 1.6 | 0.00 | 0.79 | 0.00 | 85 | 1010.6 |
| 20260904101550 | 10 | 110 | 0.0 | 1.6 | 0.00 | 0.79 | 0.00 | 87 | 1010.5 |
| 20260904100048 | 9 | 110 | 0.0 | 0.0 | 0.00 | 0.79 | 0.00 | 90 | 1010.2 |
| 20260904094647 | 9 | 110 | 0.0 | 0.0 | 0.00 | 0.79 | 0.00 | 88 | 1010.1 |
| 20260904093053 | 9 | 110 | 0.0 | 0.0 | 0.00 | 0.79 | 0.00 | 87 | 1010.1 |
| 20260904091552 | 9 | 110 | 0.0 | 1.6 | 0.00 | 0.79 | 0.00 | 87 | 1010.1 |
| 20260904090044 | 9 | 110 | 0.0 | 0.0 | 0.00 | 0.79 | 0.00 | 90 | 1010.0 |
| 20260904084545 | 9 | 110 | 0.0 | 1.6 | 0.00 | 0.79 | 0.00 | 90 | 1010.1 |
| 20260904083042 | 9 | 110 | 0.0 | 0.0 | 0.00 | 0.79 | 0.00 | 87 | 1010.1 |
| 20260904081540 | 10 | 110 | 0.0 | 1.6 | 0.00 | 0.79 | 0.00 | 86 | 1010.1 |
| 20260904080140 | 10 | 131 | 0.0 | 1.6 | 0.00 | 0.79 | 0.00 | 88 | 1009.9 |
| 20260904074552 | 9 | 86 | 0.0 | 1.6 | 0.00 | 0.79 | 0.00 | 89 | 1009.9 |
| 20260904073035 | 9 | 86 | 0.0 | 0.0 | 0.00 | 0.79 | 0.00 | 89 | 1009.8 |
| 20260904071546 | 10 | 86 | 0.0 | 0.0 | 0.00 | 0.79 | 0.00 | 87 | 1009.7 |
| 20260904070029 | 10 | 86 | 0.0 | 1.6 | 0.00 | 0.79 | 0.00 | 84 | 1009.6 |
| 20260904064533 | 10 | 101 | 0.0 | 1.6 | 0.00 | 0.81 | 0.79 | 92 | 1009.6 |
| 20260904063038 | 11 | 113 | 0.0 | 1.6 | 0.00 | 0.81 | 0.79 | 95 | 1009.5 |
| 20260904061631 | 11 | 108 | 0.0 | 0.0 | 0.03 | 0.81 | 0.79 | 95 | 1009.5 |
| 20260904060029 | 11 | 107 | 0.0 | 1.6 | 0.03 | 0.81 | 0.79 | 95 | 1009.6 |
| 20260904054533 | 11 | 107 | 0.0 | 1.6 | 0.03 | 0.86 | 0.79 | 95 | 1009.7 |
| 20260904053026 | 11 | 107 | 0.0 | 3.2 | 0.00 | 0.84 | 0.76 | 95 | 1009.6 |
| 20260904051524 | 11 | 96 | 0.0 | 0.0 | 0.03 | 0.84 | 0.76 | 95 | 1009.8 |
| 20260904050028 | 11 | 94 | 0.0 | 1.6 | 0.15 | 0.84 | 0.76 | 95 | 1009.9 |
| 20260904044524 | 11 | 204 | 0.0 | 1.6 | 0.76 | 0.91 | 0.76 | 95 | 1009.9 |
| 20260904043124 | 11 | 142 | 0.0 | 1.6 | 0.76 | 0.91 | 0.76 | 94 | 1009.9 |
| 20260904041526 | 11 | 229 | 0.0 | 3.2 | 0.71 | 0.89 | 0.71 | 93 | 1010.0 |
| 20260904040023 | 12 | 44 | 0.0 | 6.4 | 0.61 | 0.76 | 0.61 | 88 | 1009.8 |
| 20260904034521 | 15 | 67 | 3.2 | 8.0 | 0.00 | 0.15 | 0.00 | 56 | 1009.5 |
| 20260904033021 | 15 | 84 | 0.0 | 6.4 | 0.00 | 0.15 | 0.00 | 55 | 1009.2 |
| 20260904031521 | 15 | 110 | 0.0 | 12.9 | 0.00 | 0.15 | 0.00 | 55 | 1008.9 |
| 20260904030029 | 15 | 146 | 1.6 | 4.8 | 0.00 | 0.15 | 0.00 | 55 | 1008.7 |
| 20260904024621 | 16 | 109 | 0.0 | 6.4 | 0.00 | 0.15 | 0.00 | 54 | 1008.5 |
| 20260904023019 | 16 | 98 | 3.2 | 11.3 | 0.00 | 0.15 | 0.00 | 53 | 1008.1 |
| 20260904021530 | 16 | 100 | 3.2 | 9.7 | 0.00 | 0.15 | 0.00 | 51 | 1007.9 |
| 20260904020018 | 17 | 141 | 4.8 | 14.5 | 0.00 | 0.15 | 0.00 | 49 | 1007.9 |
| 20260904014521 | 18 | 174 | 0.0 | 8.0 | 0.00 | 0.15 | 0.00 | 47 | 1007.7 |
| 20260904013017 | 19 | 67 | 0.0 | 1.6 | 0.00 | 0.15 | 0.00 | 42 | 1007.6 |
| 20260904011516 | 20 | 281 | 1.6 | 11.3 | 0.00 | 0.15 | 0.00 | 39 | 1007.5 |
| 20260904010117 | 21 | 19 | 0.0 | 9.7 | 0.00 | 0.15 | 0.00 | 36 | 1007.5 |
| 20260904004516 | 20 | 305 | 4.8 | 14.5 | 0.00 | 0.15 | 0.00 | 37 | 1007.5 |
| 20260904003019 | 21 | 328 | 1.6 | 12.9 | 0.00 | 0.15 | 0.00 | 37 | 1007.6 |
| 20260904001514 | 21 | 27 | 1.6 | 12.9 | 0.00 | 0.15 | 0.00 | 36 | 1007.7 |
| 20260904000013 | 21 | 50 | 4.8 | 11.3 | 0.00 | 0.15 | 0.00 | 35 | 1007.6 |
| 20260903234512 | 21 | 84 | 1.6 | 11.3 | 0.00 | 0.15 | 0.00 | 35 | 1007.6 |
| 20260903233009 | 21 | 293 | 3.2 | 8.0 | 0.00 | 0.15 | 0.00 | 35 | 1007.8 |
| 20260903231617 | 21 | 28 | 9.7 | 17.7 | 0.00 | 0.15 | 0.00 | 34 | 1008.0 |
| 20260903230010 | 21 | 298 | 6.4 | 16.1 | 0.00 | 0.15 | 0.00 | 36 | 1008.2 |
| 20260903224505 | 21 | 61 | 6.4 | 14.5 | 0.00 | 0.18 | 0.00 | 37 | 1008.3 |
| 20260903223003 | 21 | 326 | 6.4 | 14.5 | 0.00 | 0.18 | 0.00 | 40 | 1008.4 |
| 20260903221502 | 20 | 329 | 4.8 | 20.9 | 0.00 | 0.18 | 0.00 | 41 | 1008.4 |
| 20260903220002 | 21 | 47 | 6.4 | 16.1 | 0.00 | 0.18 | 0.00 | 39 | 1008.6 |
| 20260903214604 | 20 | 343 | 8.0 | 22.5 | 0.00 | 0.20 | 0.00 | 39 | 1008.6 |
| 20260903213057 | 20 | 1 | 4.8 | 16.1 | 0.00 | 0.20 | 0.00 | 40 | 1008.5 |
| 20260903211555 | 20 | 307 | 6.4 | 24.1 | 0.00 | 0.20 | 0.00 | 40 | 1008.6 |
| 20260903210055 | 20 | 47 | 4.8 | 19.3 | 0.00 | 0.20 | 0.00 | 42 | 1008.7 |
| 20260903204556 | 20 | 32 | 9.7 | 20.9 | 0.00 | 0.20 | 0.00 | 39 | 1008.7 |
| 20260903203054 | 20 | 30 | 12.9 | 20.9 | 0.00 | 0.20 | 0.00 | 39 | 1008.9 |
| 20260903201549 | 20 | 360 | 4.8 | 20.9 | 0.00 | 0.20 | 0.00 | 44 | 1009.0 |
| 20260903200050 | 20 | 86 | 8.0 | 19.3 | 0.00 | 0.20 | 0.00 | 43 | 1009.2 |
| 20260903194545 | 20 | 325 | 6.4 | 16.1 | 0.00 | 0.20 | 0.00 | 44 | 1009.2 |
| 20260903193044 | 19 | 47 | 9.7 | 17.7 | 0.00 | 0.20 | 0.00 | 45 | 1009.3 |
| 20260903191541 | 19 | 9 | 6.4 | 12.9 | 0.00 | 0.20 | 0.00 | 44 | 1009.3 |
| 20260903190038 | 18 | 20 | 6.4 | 19.3 | 0.00 | 0.20 | 0.00 | 45 | 1009.6 |
| 20260903184537 | 18 | 42 | 6.4 | 16.1 | 0.00 | 0.20 | 0.00 | 48 | 1009.8 |